Hollywood, Pennsylvania
Current Conditions -  °F | °C
As of 3:54 PM on Sunday 21 Dec 2014 (Local Time) from KPNE Reporting Station
Clear Clear  
Wind Chill: 31°   Ceiling: Unl
Heat Index: 38°   Visibility: 10mi
Dew Point: 21°   Wind: 10mph
Humidity: 51%   Direction: 10°N
Pressure: 30.31"   Gusts: NA
Location:  40.1039°N, 75.1072°W
Report Text: KPNE 212054Z AUTO 01009KT 10SM CLR 03/M06 A3031 RMK AO2 SLP264 T00331061 55003 TSNO
Loading
Personal Weather Stations






























Interactive Weather Map New forecast layout! Learn more

10-Day Weather Forecast

Advertisements
Track Severe Weather on mobile